Flight Track Log - Related Links

Times and Time Zones

All times are in EDT time to prevent confusion due to time zone crossing. See the TCF3494 flight status page for this flight to view local times or setup timezone preferences in your user account.

Time Position Orientation Groundspeed Altitude Reporting Facility
EDT Latitude Longitude Course Direction KTS MPH feet Rate Location/Type
Mon 04:17:26 PM 41.9333 -87.8667 77° East 211 243 2,900  Level Chicago TRACON
Mon 04:18:26 PM 41.9500 -87.7667 77° East 274 315 5,600 2,950 Climbing Chicago TRACON
Mon 04:19:26 PM 41.9833 -87.6667 66° East 317 365 8,800 2,809 Climbing Chicago TRACON
Mon 04:21:19 PM 41.9714 -87.4672 95° East 330 380 13,700 2,503 Climbing Chicago Center
Mon 04:22:21 PM 41.9611 -87.3111 95° East 344 396 16,100 2,419 Climbing Chicago Center
Mon 04:23:23 PM 41.9508 -87.1656 95° East 380 437 18,700 2,419 Climbing Chicago Center
Mon 04:24:25 PM 41.9431 -87.0192 94° East 390 449 21,100 2,081 Climbing Chicago Center
Mon 04:25:27 PM 41.9467 -86.8669 88° East 403 464 23,000 1,839 Climbing Chicago Center
Mon 04:26:29 PM 41.9481 -86.7086 89° East 419 482 24,900 1,839 Climbing Chicago Center
Mon 04:27:31 PM 41.9503 -86.5392 89° East 431 496 26,800 1,597 Climbing Chicago Center
Mon 04:28:33 PM 41.9519 -86.3750 89° East 437 503 28,200 1,452 Climbing Chicago Center
Mon 04:29:35 PM 41.9511 -86.1717 90° East 451 519 29,800 1,355 Climbing Chicago Center
Mon 04:30:37 PM 41.9358 -86.0022 97° East 456 525 31,000 1,104 Climbing Chicago Center
Mon 04:31:40 PM 41.9197 -85.8319 97° East 458 527 32,100 1,161 Climbing Chicago Center
Mon 04:32:41 PM 41.9031 -85.6611 97° East 459 528 33,400 1,122 Climbing Chicago Center
Mon 04:33:43 PM 41.8872 -85.4897 97° East 458 527 34,400 768 Climbing Chicago Center
Mon 04:34:46 PM 41.8708 -85.3167 97° East 460 529 35,000 288 Climbing Chicago Center
Mon 04:35:48 PM 41.8536 -85.1439 98° East 461 531 35,000  Level Chicago Center
Mon 04:36:34 PM 41.8414 -85.0042 97° East 449 517 35,000  Level Cleveland Center
Mon 04:37:34 PM 41.8228 -84.8331 98° East 454 522 35,000  Level Cleveland Center
Mon 04:38:34 PM 41.8039 -84.6617 98° East 459 528 35,000  Level Cleveland Center
Mon 04:39:34 PM 41.7847 -84.4933 99° East 459 528 35,000  Level Cleveland Center
Mon 04:40:34 PM 41.7778 -84.3258 93° East 459 528 35,000  Level Cleveland Center
Mon 04:41:34 PM 41.7731 -84.1500 92° East 439 505 35,000  Level Cleveland Center
Mon 04:42:34 PM 41.7739 -83.9914 90° East 433 498 35,000  Level Cleveland Center
Mon 04:43:34 PM 41.7722 -83.8325 91° East 426 490 35,000  Level Cleveland Center
Mon 04:44:34 PM 41.7681 -83.6736 92° East 421 484 35,000  Level Cleveland Center
Mon 04:45:34 PM 41.7639 -83.5175 92° East 421 484 35,000  Level Cleveland Center
Mon 04:46:34 PM 41.7492 -83.3581 97° East 426 490 35,000  Level Cleveland Center
Mon 04:47:34 PM 41.7322 -83.1875 98° East 438 504 35,000  Level Cleveland Center
Mon 04:48:34 PM 41.7172 -83.0200 97° East 450 518 35,000  Level Cleveland Center
Mon 04:49:34 PM 41.6997 -82.8525 98° East 450 518 35,000  Level Cleveland Center
Mon 04:50:34 PM 41.6822 -82.6850 98° East 450 518 35,000  Level Cleveland Center
Mon 04:51:34 PM 41.6664 -82.5178 97° East 450 518 35,000  Level Cleveland Center
Mon 04:52:34 PM 41.6519 -82.3867 98° East 450 518 35,000  Level Cleveland Center
Mon 04:53:34 PM 41.6336 -82.2056 98° East 445 512 35,000  Level Cleveland Center
Mon 04:54:34 PM 41.6150 -82.0411 99° East 445 512 35,000  Level Cleveland Center
Mon 04:55:34 PM 41.5964 -81.8603 98° East 451 519 35,000  Level Cleveland Center
Mon 04:56:34 PM 41.5772 -81.6961 99° East 451 519 35,000  Level Cleveland Center
Mon 04:57:34 PM 41.5600 -81.5322 98° East 446 513 35,000  Level Cleveland Center
Mon 04:58:34 PM 41.5403 -81.3683 99° East 451 519 35,000  Level Cleveland Center
Mon 04:59:34 PM 41.5206 -81.2044 99° East 451 519 35,000  Level Cleveland Center
Mon 05:00:34 PM 41.5067 -81.0544 97° East 451 519 35,000  Level Cleveland Center
Mon 05:01:34 PM 41.4906 -80.8908 97° East 445 512 35,000  Level Cleveland Center
Mon 05:02:34 PM 41.4783 -80.7244 96° East 445 512 35,000  Level Cleveland Center
Mon 05:03:34 PM 41.4639 -80.5611 97° East 445 512 35,000  Level Cleveland Center
Mon 05:04:34 PM 41.4469 -80.3975 98° East 445 512 35,000  Level Cleveland Center
Mon 05:05:34 PM 41.4319 -80.2314 97° East 445 512 35,000  Level Cleveland Center
Mon 05:06:34 PM 41.4169 -80.0625 97° East 445 512 35,000  Level Cleveland Center
Mon 05:07:34 PM 41.3992 -79.8994 98° East 445 512 35,000  Level Cleveland Center
Mon 05:08:34 PM 41.3836 -79.7364 97° East 445 512 35,000  Level Cleveland Center
Mon 05:09:34 PM 41.3678 -79.5706 97° East 445 512 35,000  Level Cleveland Center
Mon 05:10:34 PM 41.3514 -79.4047 97° East 445 512 35,000  Level Cleveland Center
Mon 05:11:34 PM 41.3331 -79.2419 98° East 445 512 35,000  Level Cleveland Center
Mon 05:12:34 PM 41.3164 -79.0819 98° East 445 512 35,000  Level Cleveland Center
Mon 05:13:34 PM 41.3017 -78.9164 97° East 445 512 35,000  Level Cleveland Center
Mon 05:14:34 PM 41.2825 -78.7567 99° East 445 512 35,000  Level Cleveland Center
Mon 05:16:42 PM 41.2431 -78.3983 98° East 449 517 35,000 -319 Level New York Center
Mon 05:17:42 PM 41.2261 -78.2392 98° East 449 517 34,000 -1,017 Descending New York Center
Mon 05:18:40 PM 41.2069 -78.0769 99° East 449 517 33,000 -508 Descending New York Center
Mon 05:19:40 PM 41.1856 -77.9147 100° East 449 517 33,000  Level New York Center
Mon 05:20:41 PM 41.1661 -77.7528 99° East 449 517 33,000  Level New York Center
Mon 05:21:41 PM 41.1464 -77.5881 99° East 449 517 33,000  Level New York Center
Mon 05:22:42 PM 41.1244 -77.4233 100° East 449 517 33,000 -655 Level New York Center
Mon 05:23:40 PM 41.1033 -77.2781 101° East 449 517 31,700 -1,729 Descending New York Center
Mon 05:24:40 PM 41.0831 -77.1164 99° East 449 517 29,600 -2,132 Descending New York Center
Mon 05:25:41 PM 41.0603 -76.9544 101° East 449 517 27,400 -2,115 Descending New York Center
Mon 05:26:42 PM 41.0394 -76.7958 100° East 449 517 25,300 -1,983 Descending New York Center
Mon 05:27:42 PM 41.0156 -76.6453 102° East 431 496 23,400 -1,932 Descending New York Center
Mon 05:28:40 PM 40.9831 -76.5047 107° East 414 476 21,500 -1,916 Descending New York Center
Mon 05:29:41 PM 40.9500 -76.3675 108° East 403 464 19,600 -1,736 Descending New York Center
Mon 05:30:41 PM 40.9153 -76.2164 107° East 392 451 18,000 -850 Descending New York Center
Mon 05:31:41 PM 40.8853 -76.0958 108° East 386 444 17,900 -1,091 Descending New York Center
Mon 05:32:42 PM 40.8500 -75.9531 108° East 381 438 15,800 -1,916 Descending New York Center
Mon 05:33:40 PM 40.8217 -75.8386 108° East 374 430 14,100 -1,412 Descending New York Center
Mon 05:34:41 PM 40.7897 -75.7047 107° East 353 406 13,000 -545 Descending New York Center
Mon 05:35:41 PM 40.7594 -75.5847 108° East 348 400 13,000  Level New York Center
Mon 05:36:41 PM 40.7289 -75.4619 108° East 348 400 13,000  Level New York Center
Mon 05:37:42 PM 40.7025 -75.3397 106° East 355 409 13,000  Level New York Center
Mon 05:38:40 PM 40.6797 -75.2206 104° East 350 403 13,000 -655 Level New York Center
Mon 05:39:41 PM 40.6381 -75.1083 116° Southeast 344 396 11,700 -1,488 Descending New York Center
Mon 05:40:41 PM 40.5806 -75.0283 133° Southeast 334 384 10,000 -843 Descending New York Center
Mon 05:41:42 PM 40.5428 -74.9222 115° Southeast 329 379 10,000  Level New York Center
Mon 05:42:42 PM 40.5092 -74.8081 111° Southeast 329 379 10,000  Level New York Center
Mon 05:43:40 PM 40.4714 -74.6969 114° Southeast 315 362 10,000 81 Level New York Center
Mon 05:43:56 PM 40.4500 -74.6667 133° Southeast 292 336 10,100 79 Climbing New York TRACON
Mon 05:44:56 PM 40.4000 -74.6000 135° Southeast 286 329 10,100 -764 Level New York TRACON
Mon 05:46:41 PM 40.3158 -74.4811 133° Southeast 275 316 8,000 -1,000 Descending New York Center
Mon 05:46:56 PM 40.3167 -74.4333 89° East 283 326 8,100 -500 Climbing New York TRACON
Mon 05:47:41 PM 40.3211 -74.3725 85° East 256 295 7,500 -500 Descending New York Center
Mon 05:48:56 PM 40.3833 -74.2833 47° Northeast 282 325 7,100 -178 Descending New York TRACON
Mon 05:49:56 PM 40.4500 -74.2167 37° Northeast 283 326 7,100 -200 Level New York TRACON
Mon 05:50:56 PM 40.5167 -74.1500 37° Northeast 282 325 6,700 -1,100 Descending New York TRACON
Mon 05:51:56 PM 40.5667 -74.0833 45° Northeast 285 328 4,900 -867 Descending New York TRACON
Mon 05:53:56 PM 40.7167 -74.0333 14° North 268 308 4,100 -200 Descending New York TRACON
Mon 05:55:00 PM 40.7687 -73.8955 30° Northeast  Level Estimated
Mon 05:55:56 PM 40.8167 -73.9500 30° Northeast 230 265 4,100  Level New York TRACON
Mon 05:56:56 PM 40.8667 -73.9000 37° Northeast 225 259 4,100 -375 Level New York TRACON
Mon 05:58:00 PM 40.7772 -73.8726 167° South  Level Estimated
Mon 05:59:56 PM 40.9000 -73.7833 270° West 170 196 2,600  Level New York TRACON
Mon 06:05:00 PM 40.7772 -73.8726 270° West  Level Estimated

Login

Don't have an account? Register now (free) for customized features, flight alerts, and more!